Terminal Aerodrome Forecast
Issued by NWS

Home | Current Version | Previous Version | Text Only | Print | Product List | Glossary On
Versions: 1 2 3 4 5 6 7 8 9 10 11 12 13 14 15
000
FTAK31 PAJN 261100
TAFAJN
TAF
PAJN 261139Z 2612/2712 VRB03KT P6SM SCT200
     FM261400 VRB03KT P6SM SCT020 SCT200
     FM262000 24008KT P6SM SCT100
     FM270000 25006KT P6SM BKN080
     FM270800 VRB06KT P6SM VCSH OVC060=

USA.gov is the U.S. government's official web portal to all federal, state and local government web resources and services.